sensor_id;sensor_type;location;lat;lon;timestamp;P1;durP1;ratioP1;P2;durP2;ratioP2
16693;SDS011;39538;52.196;9.892;2022-08-04T00:00:20;404.40;;;386.33;;
16693;SDS011;39538;52.196;9.892;2022-08-04T00:02:51;415.43;;;396.50;;
16693;SDS011;39538;52.196;9.892;2022-08-04T00:05:34;407.87;;;389.57;;
16693;SDS011;39538;52.196;9.892;2022-08-04T00:08:11;413.63;;;394.30;;
16693;SDS011;39538;52.196;9.892;2022-08-04T00:10:47;390.20;;;372.90;;
16693;SDS011;39538;52.196;9.892;2022-08-04T00:13:15;395.43;;;377.20;;
16693;SDS011;39538;52.196;9.892;2022-08-04T00:15:49;404.47;;;386.30;;
16693;SDS011;39538;52.196;9.892;2022-08-04T00:18:17;405.40;;;387.10;;
16693;SDS011;39538;52.196;9.892;2022-08-04T00:20:50;401.53;;;383.77;;
16693;SDS011;39538;52.196;9.892;2022-08-04T00:23:19;434.90;;;414.40;;
16693;SDS011;39538;52.196;9.892;2022-08-04T00:25:47;422.57;;;402.87;;
16693;SDS011;39538;52.196;9.892;2022-08-04T00:28:14;446.60;;;424.93;;
16693;SDS011;39538;52.196;9.892;2022-08-04T00:30:41;428.50;;;408.00;;
16693;SDS011;39538;52.196;9.892;2022-08-04T00:33:07;422.67;;;402.40;;
16693;SDS011;39538;52.196;9.892;2022-08-04T00:35:34;448.40;;;426.60;;
16693;SDS011;39538;52.196;9.892;2022-08-04T00:38:04;440.20;;;418.77;;
16693;SDS011;39538;52.196;9.892;2022-08-04T00:40:32;428.80;;;407.87;;
16693;SDS011;39538;52.196;9.892;2022-08-04T00:43:09;425.53;;;404.80;;
16693;SDS011;39538;52.196;9.892;2022-08-04T00:48:36;434.57;;;413.40;;
16693;SDS011;39538;52.196;9.892;2022-08-04T00:51:25;434.50;;;413.07;;
16693;SDS011;39538;52.196;9.892;2022-08-04T00:54:05;421.73;;;401.20;;
16693;SDS011;39538;52.196;9.892;2022-08-04T00:56:44;433.90;;;412.60;;
16693;SDS011;39538;52.196;9.892;2022-08-04T00:59:26;421.47;;;400.60;;
16693;SDS011;39538;52.196;9.892;2022-08-04T01:02:05;419.77;;;398.70;;
16693;SDS011;39538;52.196;9.892;2022-08-04T01:04:44;435.80;;;414.10;;
16693;SDS011;39538;52.196;9.892;2022-08-04T01:07:27;431.70;;;409.90;;
16693;SDS011;39538;52.196;9.892;2022-08-04T01:10:08;435.27;;;412.97;;
16693;SDS011;39538;52.196;9.892;2022-08-04T01:12:45;432.77;;;410.77;;
16693;SDS011;39538;52.196;9.892;2022-08-04T01:15:30;431.50;;;409.67;;
16693;SDS011;39538;52.196;9.892;2022-08-04T01:18:05;423.57;;;402.37;;
16693;SDS011;39538;52.196;9.892;2022-08-04T01:20:33;426.17;;;404.97;;
16693;SDS011;39538;52.196;9.892;2022-08-04T01:26:22;418.60;;;397.93;;
16693;SDS011;39538;52.196;9.892;2022-08-04T01:29:03;405.57;;;386.33;;
16693;SDS011;39538;52.196;9.892;2022-08-04T01:31:34;404.73;;;385.53;;
16693;SDS011;39538;52.196;9.892;2022-08-04T01:34:12;406.30;;;386.53;;
16693;SDS011;39538;52.196;9.892;2022-08-04T01:36:49;423.73;;;402.90;;
16693;SDS011;39538;52.196;9.892;2022-08-04T01:39:23;405.10;;;384.93;;
16693;SDS011;39538;52.196;9.892;2022-08-04T01:42:07;409.97;;;389.03;;
16693;SDS011;39538;52.196;9.892;2022-08-04T01:44:37;412.63;;;392.53;;
16693;SDS011;39538;52.196;9.892;2022-08-04T01:47:06;449.17;;;425.60;;
16693;SDS011;39538;52.196;9.892;2022-08-04T01:49:34;447.63;;;424.53;;
16693;SDS011;39538;52.196;9.892;2022-08-04T01:52:04;448.20;;;425.17;;
16693;SDS011;39538;52.196;9.892;2022-08-04T01:54:34;443.97;;;421.03;;
16693;SDS011;39538;52.196;9.892;2022-08-04T01:57:03;454.33;;;431.50;;
16693;SDS011;39538;52.196;9.892;2022-08-04T01:59:30;449.10;;;426.97;;
16693;SDS011;39538;52.196;9.892;2022-08-04T02:02:02;454.10;;;431.50;;
16693;SDS011;39538;52.196;9.892;2022-08-04T02:04:29;450.63;;;428.70;;
16693;SDS011;39538;52.196;9.892;2022-08-04T02:06:59;447.77;;;425.53;;
16693;SDS011;39538;52.196;9.892;2022-08-04T02:09:37;444.37;;;422.40;;
16693;SDS011;39538;52.196;9.892;2022-08-04T02:12:08;443.10;;;421.40;;
16693;SDS011;39538;52.196;9.892;2022-08-04T02:14:43;436.07;;;414.93;;
16693;SDS011;39538;52.196;9.892;2022-08-04T02:17:18;444.20;;;421.77;;
16693;SDS011;39538;52.196;9.892;2022-08-04T02:19:55;430.10;;;409.07;;
16693;SDS011;39538;52.196;9.892;2022-08-04T02:22:37;429.03;;;408.43;;
16693;SDS011;39538;52.196;9.892;2022-08-04T02:25:07;432.10;;;410.87;;
16693;SDS011;39538;52.196;9.892;2022-08-04T02:27:39;416.27;;;396.53;;
16693;SDS011;39538;52.196;9.892;2022-08-04T02:30:19;418.90;;;399.00;;
16693;SDS011;39538;52.196;9.892;2022-08-04T02:32:49;424.57;;;404.10;;
16693;SDS011;39538;52.196;9.892;2022-08-04T02:35:23;420.53;;;400.77;;
16693;SDS011;39538;52.196;9.892;2022-08-04T02:37:55;424.37;;;403.77;;
16693;SDS011;39538;52.196;9.892;2022-08-04T02:40:30;423.53;;;403.13;;
16693;SDS011;39538;52.196;9.892;2022-08-04T02:42:57;430.63;;;410.00;;
16693;SDS011;39538;52.196;9.892;2022-08-04T02:45:24;427.83;;;407.53;;
16693;SDS011;39538;52.196;9.892;2022-08-04T02:47:53;425.17;;;404.87;;
16693;SDS011;39538;52.196;9.892;2022-08-04T02:50:22;427.27;;;407.00;;
16693;SDS011;39538;52.196;9.892;2022-08-04T02:52:50;422.50;;;402.67;;
16693;SDS011;39538;52.196;9.892;2022-08-04T02:55:17;421.47;;;401.37;;
16693;SDS011;39538;52.196;9.892;2022-08-04T02:57:44;414.43;;;395.00;;
16693;SDS011;39538;52.196;9.892;2022-08-04T03:00:14;423.77;;;404.10;;
16693;SDS011;39538;52.196;9.892;2022-08-04T03:02:47;431.03;;;410.53;;
16693;SDS011;39538;52.196;9.892;2022-08-04T03:05:23;426.50;;;405.57;;
16693;SDS011;39538;52.196;9.892;2022-08-04T03:08:16;417.77;;;397.83;;
16693;SDS011;39538;52.196;9.892;2022-08-04T03:14:04;429.23;;;408.83;;
16693;SDS011;39538;52.196;9.892;2022-08-04T03:16:56;422.17;;;402.20;;
16693;SDS011;39538;52.196;9.892;2022-08-04T03:19:50;412.53;;;393.30;;
16693;SDS011;39538;52.196;9.892;2022-08-04T03:25:37;418.63;;;398.67;;
16693;SDS011;39538;52.196;9.892;2022-08-04T03:28:17;422.83;;;402.47;;
16693;SDS011;39538;52.196;9.892;2022-08-04T03:31:06;421.27;;;400.93;;
16693;SDS011;39538;52.196;9.892;2022-08-04T03:33:56;420.37;;;400.07;;
16693;SDS011;39538;52.196;9.892;2022-08-04T03:36:53;433.50;;;412.50;;
16693;SDS011;39538;52.196;9.892;2022-08-04T03:40:00;424.97;;;403.90;;
16693;SDS011;39538;52.196;9.892;2022-08-04T03:52:05;420.00;;;399.13;;
16693;SDS011;39538;52.196;9.892;2022-08-04T03:58:09;408.43;;;388.27;;
16693;SDS011;39538;52.196;9.892;2022-08-04T04:01:03;421.83;;;401.10;;
16693;SDS011;39538;52.196;9.892;2022-08-04T04:03:40;434.23;;;412.37;;
16693;SDS011;39538;52.196;9.892;2022-08-04T04:06:34;432.60;;;410.73;;
16693;SDS011;39538;52.196;9.892;2022-08-04T04:09:18;428.47;;;406.60;;
16693;SDS011;39538;52.196;9.892;2022-08-04T04:14:58;428.10;;;406.73;;
16693;SDS011;39538;52.196;9.892;2022-08-04T04:17:44;422.57;;;401.10;;
16693;SDS011;39538;52.196;9.892;2022-08-04T04:20:24;437.90;;;415.50;;
16693;SDS011;39538;52.196;9.892;2022-08-04T04:25:54;416.87;;;395.33;;
16693;SDS011;39538;52.196;9.892;2022-08-04T04:28:37;428.10;;;406.43;;
16693;SDS011;39538;52.196;9.892;2022-08-04T04:31:23;425.47;;;403.87;;
16693;SDS011;39538;52.196;9.892;2022-08-04T04:34:02;420.73;;;399.77;;
16693;SDS011;39538;52.196;9.892;2022-08-04T04:36:37;428.93;;;407.17;;
16693;SDS011;39538;52.196;9.892;2022-08-04T04:39:15;417.50;;;396.60;;
16693;SDS011;39538;52.196;9.892;2022-08-04T04:42:06;435.93;;;413.47;;
16693;SDS011;39538;52.196;9.892;2022-08-04T04:45:04;428.43;;;407.07;;
16693;SDS011;39538;52.196;9.892;2022-08-04T04:47:44;417.93;;;397.20;;
16693;SDS011;39538;52.196;9.892;2022-08-04T04:50:17;424.53;;;403.33;;
16693;SDS011;39538;52.196;9.892;2022-08-04T04:52:52;426.27;;;405.23;;
16693;SDS011;39538;52.196;9.892;2022-08-04T04:55:28;426.70;;;405.53;;
16693;SDS011;39538;52.196;9.892;2022-08-04T04:57:59;425.00;;;404.07;;
16693;SDS011;39538;52.196;9.892;2022-08-04T05:00:30;424.20;;;403.53;;
16693;SDS011;39538;52.196;9.892;2022-08-04T05:06:11;425.80;;;405.30;;
16693;SDS011;39538;52.196;9.892;2022-08-04T05:08:54;423.87;;;403.00;;
16693;SDS011;39538;52.196;9.892;2022-08-04T05:14:29;418.60;;;397.70;;
16693;SDS011;39538;52.196;9.892;2022-08-04T05:17:02;419.10;;;398.33;;
16693;SDS011;39538;52.196;9.892;2022-08-04T05:19:33;421.87;;;400.80;;
16693;SDS011;39538;52.196;9.892;2022-08-04T05:22:11;417.67;;;396.73;;
16693;SDS011;39538;52.196;9.892;2022-08-04T05:24:48;414.20;;;393.67;;
16693;SDS011;39538;52.196;9.892;2022-08-04T05:27:21;413.00;;;392.43;;
16693;SDS011;39538;52.196;9.892;2022-08-04T05:29:54;405.30;;;385.37;;
16693;SDS011;39538;52.196;9.892;2022-08-04T05:32:30;411.90;;;391.40;;
16693;SDS011;39538;52.196;9.892;2022-08-04T05:35:03;409.13;;;388.83;;
16693;SDS011;39538;52.196;9.892;2022-08-04T05:37:45;416.23;;;395.37;;
16693;SDS011;39538;52.196;9.892;2022-08-04T05:40:25;411.63;;;392.23;;
16693;SDS011;39538;52.196;9.892;2022-08-04T05:43:03;402.63;;;383.53;;
16693;SDS011;39538;52.196;9.892;2022-08-04T05:45:38;408.07;;;388.73;;
16693;SDS011;39538;52.196;9.892;2022-08-04T05:48:07;408.83;;;389.07;;
16693;SDS011;39538;52.196;9.892;2022-08-04T05:50:34;409.37;;;389.60;;
16693;SDS011;39538;52.196;9.892;2022-08-04T05:53:01;410.47;;;391.10;;
16693;SDS011;39538;52.196;9.892;2022-08-04T05:55:28;420.90;;;400.03;;
16693;SDS011;39538;52.196;9.892;2022-08-04T05:57:55;438.73;;;416.23;;
16693;SDS011;39538;52.196;9.892;2022-08-04T06:00:24;429.40;;;407.77;;
16693;SDS011;39538;52.196;9.892;2022-08-04T06:02:52;430.47;;;408.60;;
16693;SDS011;39538;52.196;9.892;2022-08-04T06:05:22;454.97;;;431.57;;
16693;SDS011;39538;52.196;9.892;2022-08-04T06:07:50;467.23;;;443.30;;
16693;SDS011;39538;52.196;9.892;2022-08-04T06:10:16;477.67;;;453.43;;
16693;SDS011;39538;52.196;9.892;2022-08-04T06:12:45;470.47;;;446.23;;
16693;SDS011;39538;52.196;9.892;2022-08-04T06:15:16;455.97;;;433.13;;
16693;SDS011;39538;52.196;9.892;2022-08-04T06:17:45;442.37;;;419.60;;
16693;SDS011;39538;52.196;9.892;2022-08-04T06:20:14;439.30;;;416.63;;
16693;SDS011;39538;52.196;9.892;2022-08-04T06:22:46;424.97;;;403.80;;
16693;SDS011;39538;52.196;9.892;2022-08-04T06:25:19;392.90;;;374.97;;
16693;SDS011;39538;52.196;9.892;2022-08-04T06:27:48;394.65;;;376.63;;
16693;SDS011;39538;52.196;9.892;2022-08-04T06:30:16;399.17;;;380.37;;
16693;SDS011;39538;52.196;9.892;2022-08-04T06:32:44;417.27;;;397.13;;
16693;SDS011;39538;52.196;9.892;2022-08-04T06:35:19;425.25;;;404.52;;
16693;SDS011;39538;52.196;9.892;2022-08-04T06:37:48;409.60;;;389.90;;
16693;SDS011;39538;52.196;9.892;2022-08-04T06:40:17;374.45;;;356.08;;
16693;SDS011;39538;52.196;9.892;2022-08-04T06:42:45;337.63;;;321.60;;
16693;SDS011;39538;52.196;9.892;2022-08-04T06:45:13;312.20;;;297.63;;
16693;SDS011;39538;52.196;9.892;2022-08-04T06:47:42;311.75;;;296.75;;
16693;SDS011;39538;52.196;9.892;2022-08-04T06:50:10;257.20;;;245.40;;
16693;SDS011;39538;52.196;9.892;2022-08-04T06:52:37;280.20;;;266.80;;
16693;SDS011;39538;52.196;9.892;2022-08-04T06:55:06;261.15;;;249.48;;
16693;SDS011;39538;52.196;9.892;2022-08-04T06:57:33;218.05;;;208.77;;
16693;SDS011;39538;52.196;9.892;2022-08-04T07:00:03;312.97;;;298.23;;
16693;SDS011;39538;52.196;9.892;2022-08-04T07:02:32;358.67;;;340.92;;
16693;SDS011;39538;52.196;9.892;2022-08-04T07:05:04;311.42;;;296.70;;
16693;SDS011;39538;52.196;9.892;2022-08-04T07:07:31;313.10;;;298.27;;
16693;SDS011;39538;52.196;9.892;2022-08-04T07:09:59;271.17;;;258.63;;
16693;SDS011;39538;52.196;9.892;2022-08-04T07:12:27;279.95;;;267.10;;
16693;SDS011;39538;52.196;9.892;2022-08-04T07:14:55;265.80;;;253.93;;
16693;SDS011;39538;52.196;9.892;2022-08-04T07:17:23;219.40;;;209.82;;
16693;SDS011;39538;52.196;9.892;2022-08-04T07:19:51;224.52;;;214.85;;
16693;SDS011;39538;52.196;9.892;2022-08-04T07:22:18;243.07;;;232.70;;
16693;SDS011;39538;52.196;9.892;2022-08-04T07:24:45;230.75;;;220.88;;
16693;SDS011;39538;52.196;9.892;2022-08-04T07:27:12;242.55;;;232.23;;
16693;SDS011;39538;52.196;9.892;2022-08-04T07:29:51;150.57;;;144.52;;
16693;SDS011;39538;52.196;9.892;2022-08-04T07:32:19;183.48;;;175.85;;
16693;SDS011;39538;52.196;9.892;2022-08-04T07:34:49;163.43;;;156.65;;
16693;SDS011;39538;52.196;9.892;2022-08-04T07:37:16;183.23;;;175.13;;
16693;SDS011;39538;52.196;9.892;2022-08-04T07:39:44;182.15;;;174.38;;
16693;SDS011;39538;52.196;9.892;2022-08-04T07:42:11;192.18;;;183.77;;
16693;SDS011;39538;52.196;9.892;2022-08-04T07:44:38;204.48;;;195.95;;
16693;SDS011;39538;52.196;9.892;2022-08-04T07:47:06;180.52;;;172.70;;
16693;SDS011;39538;52.196;9.892;2022-08-04T07:49:33;202.00;;;192.35;;
16693;SDS011;39538;52.196;9.892;2022-08-04T07:52:03;183.18;;;174.13;;
16693;SDS011;39538;52.196;9.892;2022-08-04T07:54:31;136.82;;;130.63;;
16693;SDS011;39538;52.196;9.892;2022-08-04T07:56:59;181.27;;;172.48;;
16693;SDS011;39538;52.196;9.892;2022-08-04T07:59:26;166.55;;;158.82;;
16693;SDS011;39538;52.196;9.892;2022-08-04T08:01:57;162.93;;;155.52;;
16693;SDS011;39538;52.196;9.892;2022-08-04T08:04:37;111.38;;;106.97;;
16693;SDS011;39538;52.196;9.892;2022-08-04T08:07:06;128.93;;;122.85;;
16693;SDS011;39538;52.196;9.892;2022-08-04T08:09:32;143.30;;;136.85;;
16693;SDS011;39538;52.196;9.892;2022-08-04T08:12:00;171.50;;;163.85;;
16693;SDS011;39538;52.196;9.892;2022-08-04T08:14:27;115.28;;;110.55;;
16693;SDS011;39538;52.196;9.892;2022-08-04T08:16:55;167.88;;;159.98;;
16693;SDS011;39538;52.196;9.892;2022-08-04T08:19:23;118.30;;;113.57;;
16693;SDS011;39538;52.196;9.892;2022-08-04T08:21:55;112.10;;;107.05;;
16693;SDS011;39538;52.196;9.892;2022-08-04T08:24:22;109.28;;;103.40;;
16693;SDS011;39538;52.196;9.892;2022-08-04T08:26:49;120.15;;;115.05;;
16693;SDS011;39538;52.196;9.892;2022-08-04T08:29:21;120.95;;;115.95;;
16693;SDS011;39538;52.196;9.892;2022-08-04T08:31:56;119.28;;;114.57;;
16693;SDS011;39538;52.196;9.892;2022-08-04T08:34:36;104.30;;;100.18;;
16693;SDS011;39538;52.196;9.892;2022-08-04T08:37:13;131.50;;;124.93;;
16693;SDS011;39538;52.196;9.892;2022-08-04T08:39:47;125.68;;;120.57;;
16693;SDS011;39538;52.196;9.892;2022-08-04T08:42:31;106.93;;;102.78;;
16693;SDS011;39538;52.196;9.892;2022-08-04T08:48:27;113.13;;;108.43;;
16693;SDS011;39538;52.196;9.892;2022-08-04T08:57:13;106.47;;;102.38;;
16693;SDS011;39538;52.196;9.892;2022-08-04T08:59:49;116.80;;;111.70;;
16693;SDS011;39538;52.196;9.892;2022-08-04T09:02:43;116.00;;;111.20;;
16693;SDS011;39538;52.196;9.892;2022-08-04T09:05:36;109.28;;;104.53;;
16693;SDS011;39538;52.196;9.892;2022-08-04T09:08:30;135.15;;;128.60;;
16693;SDS011;39538;52.196;9.892;2022-08-04T09:11:17;133.02;;;127.18;;
16693;SDS011;39538;52.196;9.892;2022-08-04T09:13:48;119.88;;;114.90;;
16693;SDS011;39538;52.196;9.892;2022-08-04T09:16:21;160.45;;;153.00;;
16693;SDS011;39538;52.196;9.892;2022-08-04T09:18:59;147.40;;;140.63;;
16693;SDS011;39538;52.196;9.892;2022-08-04T09:21:30;168.02;;;160.30;;
16693;SDS011;39538;52.196;9.892;2022-08-04T09:24:05;151.80;;;144.65;;
16693;SDS011;39538;52.196;9.892;2022-08-04T09:26:39;124.15;;;118.63;;
16693;SDS011;39538;52.196;9.892;2022-08-04T09:29:13;140.93;;;134.02;;
16693;SDS011;39538;52.196;9.892;2022-08-04T09:31:43;136.35;;;130.10;;
16693;SDS011;39538;52.196;9.892;2022-08-04T09:34:19;123.75;;;118.25;;
16693;SDS011;39538;52.196;9.892;2022-08-04T09:36:55;128.48;;;122.57;;
16693;SDS011;39538;52.196;9.892;2022-08-04T09:39:31;138.13;;;131.85;;
16693;SDS011;39538;52.196;9.892;2022-08-04T09:42:08;102.65;;;98.38;;
16693;SDS011;39538;52.196;9.892;2022-08-04T09:44:42;117.22;;;111.90;;
16693;SDS011;39538;52.196;9.892;2022-08-04T09:47:19;100.32;;;95.88;;
16693;SDS011;39538;52.196;9.892;2022-08-04T09:49:54;133.27;;;127.32;;
16693;SDS011;39538;52.196;9.892;2022-08-04T09:52:36;141.25;;;134.45;;
16693;SDS011;39538;52.196;9.892;2022-08-04T09:55:15;113.53;;;108.53;;
16693;SDS011;39538;52.196;9.892;2022-08-04T09:57:50;135.73;;;129.40;;
16693;SDS011;39538;52.196;9.892;2022-08-04T10:00:22;125.88;;;120.53;;
16693;SDS011;39538;52.196;9.892;2022-08-04T10:02:55;119.28;;;113.75;;
16693;SDS011;39538;52.196;9.892;2022-08-04T10:05:25;80.18;;;77.25;;
16693;SDS011;39538;52.196;9.892;2022-08-04T10:08:01;119.93;;;114.65;;
16693;SDS011;39538;52.196;9.892;2022-08-04T10:10:39;107.18;;;102.93;;
16693;SDS011;39538;52.196;9.892;2022-08-04T10:13:28;126.68;;;120.75;;
16693;SDS011;39538;52.196;9.892;2022-08-04T10:16:12;120.63;;;115.10;;
16693;SDS011;39538;52.196;9.892;2022-08-04T10:18:57;91.90;;;88.30;;
16693;SDS011;39538;52.196;9.892;2022-08-04T10:21:31;124.03;;;117.97;;
16693;SDS011;39538;52.196;9.892;2022-08-04T10:24:10;123.60;;;118.15;;
16693;SDS011;39538;52.196;9.892;2022-08-04T10:26:50;118.60;;;113.30;;
16693;SDS011;39538;52.196;9.892;2022-08-04T10:29:25;152.88;;;145.60;;
16693;SDS011;39538;52.196;9.892;2022-08-04T10:31:57;179.15;;;170.27;;
16693;SDS011;39538;52.196;9.892;2022-08-04T10:34:30;114.10;;;109.28;;
16693;SDS011;39538;52.196;9.892;2022-08-04T10:37:03;181.95;;;173.45;;
16693;SDS011;39538;52.196;9.892;2022-08-04T10:39:36;178.98;;;170.52;;
16693;SDS011;39538;52.196;9.892;2022-08-04T10:42:29;173.85;;;165.00;;
16693;SDS011;39538;52.196;9.892;2022-08-04T10:45:04;188.60;;;179.52;;
16693;SDS011;39538;52.196;9.892;2022-08-04T10:47:40;174.73;;;166.65;;
16693;SDS011;39538;52.196;9.892;2022-08-04T10:50:10;183.40;;;174.77;;
16693;SDS011;39538;52.196;9.892;2022-08-04T10:52:41;201.13;;;191.27;;
16693;SDS011;39538;52.196;9.892;2022-08-04T10:55:12;189.80;;;181.00;;
16693;SDS011;39538;52.196;9.892;2022-08-04T10:57:44;192.45;;;183.18;;
16693;SDS011;39538;52.196;9.892;2022-08-04T11:00:19;200.05;;;190.38;;
16693;SDS011;39538;52.196;9.892;2022-08-04T11:02:50;226.85;;;215.82;;
16693;SDS011;39538;52.196;9.892;2022-08-04T11:05:23;219.90;;;209.38;;
16693;SDS011;39538;52.196;9.892;2022-08-04T11:07:56;175.23;;;166.85;;
16693;SDS011;39538;52.196;9.892;2022-08-04T11:10:28;207.00;;;197.27;;
16693;SDS011;39538;52.196;9.892;2022-08-04T11:13:00;203.25;;;193.43;;
16693;SDS011;39538;52.196;9.892;2022-08-04T11:15:37;218.68;;;207.98;;
16693;SDS011;39538;52.196;9.892;2022-08-04T11:18:13;176.55;;;168.02;;
16693;SDS011;39538;52.196;9.892;2022-08-04T11:20:46;206.13;;;196.40;;
16693;SDS011;39538;52.196;9.892;2022-08-04T11:23:18;183.30;;;174.50;;
16693;SDS011;39538;52.196;9.892;2022-08-04T11:25:54;147.80;;;140.68;;
16693;SDS011;39538;52.196;9.892;2022-08-04T11:28:36;182.77;;;173.90;;
16693;SDS011;39538;52.196;9.892;2022-08-04T11:31:17;172.98;;;164.75;;
16693;SDS011;39538;52.196;9.892;2022-08-04T11:33:48;224.65;;;213.90;;
16693;SDS011;39538;52.196;9.892;2022-08-04T11:36:28;162.60;;;154.98;;
16693;SDS011;39538;52.196;9.892;2022-08-04T11:39:02;201.50;;;191.85;;
16693;SDS011;39538;52.196;9.892;2022-08-04T11:41:36;232.40;;;221.20;;
16693;SDS011;39538;52.196;9.892;2022-08-04T11:44:07;198.25;;;188.65;;
16693;SDS011;39538;52.196;9.892;2022-08-04T11:46:43;209.48;;;199.48;;
16693;SDS011;39538;52.196;9.892;2022-08-04T11:49:22;226.55;;;215.35;;
16693;SDS011;39538;52.196;9.892;2022-08-04T11:51:57;220.93;;;209.88;;
16693;SDS011;39538;52.196;9.892;2022-08-04T11:54:39;208.38;;;198.02;;
16693;SDS011;39538;52.196;9.892;2022-08-04T11:57:14;203.23;;;193.43;;
16693;SDS011;39538;52.196;9.892;2022-08-04T11:59:44;207.43;;;197.10;;
16693;SDS011;39538;52.196;9.892;2022-08-04T12:02:23;189.32;;;180.18;;
16693;SDS011;39538;52.196;9.892;2022-08-04T12:05:07;192.93;;;183.70;;
16693;SDS011;39538;52.196;9.892;2022-08-04T12:07:40;210.32;;;199.85;;
16693;SDS011;39538;52.196;9.892;2022-08-04T12:10:17;167.98;;;160.02;;
16693;SDS011;39538;52.196;9.892;2022-08-04T12:12:50;144.60;;;137.85;;
16693;SDS011;39538;52.196;9.892;2022-08-04T12:15:28;171.60;;;163.35;;
16693;SDS011;39538;52.196;9.892;2022-08-04T12:18:01;154.45;;;147.35;;
16693;SDS011;39538;52.196;9.892;2022-08-04T12:20:38;159.85;;;152.40;;
16693;SDS011;39538;52.196;9.892;2022-08-04T12:23:14;153.18;;;145.98;;
16693;SDS011;39538;52.196;9.892;2022-08-04T12:25:45;196.07;;;186.45;;
16693;SDS011;39538;52.196;9.892;2022-08-04T12:28:15;180.25;;;170.68;;
16693;SDS011;39538;52.196;9.892;2022-08-04T12:30:50;167.63;;;159.93;;
16693;SDS011;39538;52.196;9.892;2022-08-04T12:33:22;184.15;;;175.32;;
16693;SDS011;39538;52.196;9.892;2022-08-04T12:35:54;148.55;;;141.63;;
16693;SDS011;39538;52.196;9.892;2022-08-04T12:38:28;149.35;;;142.63;;
16693;SDS011;39538;52.196;9.892;2022-08-04T12:40:59;167.73;;;159.57;;
16693;SDS011;39538;52.196;9.892;2022-08-04T12:43:28;164.60;;;157.23;;
16693;SDS011;39538;52.196;9.892;2022-08-04T12:46:02;170.43;;;162.07;;
16693;SDS011;39538;52.196;9.892;2022-08-04T12:48:34;179.38;;;170.82;;
16693;SDS011;39538;52.196;9.892;2022-08-04T12:51:02;168.90;;;160.68;;
16693;SDS011;39538;52.196;9.892;2022-08-04T12:53:35;162.93;;;155.15;;
16693;SDS011;39538;52.196;9.892;2022-08-04T12:56:04;187.07;;;177.55;;
16693;SDS011;39538;52.196;9.892;2022-08-04T12:58:35;99.03;;;94.15;;
16693;SDS011;39538;52.196;9.892;2022-08-04T13:01:05;169.00;;;160.90;;
16693;SDS011;39538;52.196;9.892;2022-08-04T13:03:37;152.10;;;144.88;;
16693;SDS011;39538;52.196;9.892;2022-08-04T13:06:06;97.53;;;92.97;;
16693;SDS011;39538;52.196;9.892;2022-08-04T13:08:37;145.55;;;138.77;;
16693;SDS011;39538;52.196;9.892;2022-08-04T13:11:04;108.05;;;103.20;;
16693;SDS011;39538;52.196;9.892;2022-08-04T13:13:34;116.88;;;111.50;;
16693;SDS011;39538;52.196;9.892;2022-08-04T13:16:02;123.72;;;118.00;;
16693;SDS011;39538;52.196;9.892;2022-08-04T13:18:30;136.90;;;130.82;;
16693;SDS011;39538;52.196;9.892;2022-08-04T13:21:08;171.43;;;163.10;;
16693;SDS011;39538;52.196;9.892;2022-08-04T13:23:38;123.55;;;117.88;;
16693;SDS011;39538;52.196;9.892;2022-08-04T13:26:05;124.82;;;118.88;;
16693;SDS011;39538;52.196;9.892;2022-08-04T13:28:33;137.65;;;131.25;;
16693;SDS011;39538;52.196;9.892;2022-08-04T13:31:05;78.43;;;75.63;;
16693;SDS011;39538;52.196;9.892;2022-08-04T13:33:34;102.97;;;98.70;;
16693;SDS011;39538;52.196;9.892;2022-08-04T13:36:02;124.75;;;119.03;;
16693;SDS011;39538;52.196;9.892;2022-08-04T13:38:33;111.22;;;106.53;;
16693;SDS011;39538;52.196;9.892;2022-08-04T13:41:05;102.30;;;97.78;;
16693;SDS011;39538;52.196;9.892;2022-08-04T13:43:33;104.38;;;100.18;;
16693;SDS011;39538;52.196;9.892;2022-08-04T13:46:08;78.63;;;75.35;;
16693;SDS011;39538;52.196;9.892;2022-08-04T13:48:39;110.07;;;105.35;;
16693;SDS011;39538;52.196;9.892;2022-08-04T13:51:08;103.55;;;97.93;;
16693;SDS011;39538;52.196;9.892;2022-08-04T13:53:38;77.53;;;73.70;;
16693;SDS011;39538;52.196;9.892;2022-08-04T13:56:06;124.85;;;119.47;;
16693;SDS011;39538;52.196;9.892;2022-08-04T13:58:38;94.97;;;90.85;;
16693;SDS011;39538;52.196;9.892;2022-08-04T14:01:09;94.55;;;90.20;;
16693;SDS011;39538;52.196;9.892;2022-08-04T14:03:39;94.60;;;90.80;;
16693;SDS011;39538;52.196;9.892;2022-08-04T14:06:17;95.45;;;90.93;;
16693;SDS011;39538;52.196;9.892;2022-08-04T14:08:53;73.50;;;70.82;;
16693;SDS011;39538;52.196;9.892;2022-08-04T14:11:33;105.32;;;101.00;;
16693;SDS011;39538;52.196;9.892;2022-08-04T14:14:11;74.55;;;70.80;;
16693;SDS011;39538;52.196;9.892;2022-08-04T14:16:40;85.25;;;81.97;;
16693;SDS011;39538;52.196;9.892;2022-08-04T14:19:20;76.55;;;73.70;;
16693;SDS011;39538;52.196;9.892;2022-08-04T14:21:47;83.45;;;79.95;;
16693;SDS011;39538;52.196;9.892;2022-08-04T14:24:22;77.75;;;75.10;;
16693;SDS011;39538;52.196;9.892;2022-08-04T14:26:50;79.15;;;76.30;;
16693;SDS011;39538;52.196;9.892;2022-08-04T14:29:17;80.18;;;77.25;;
16693;SDS011;39538;52.196;9.892;2022-08-04T14:31:46;79.95;;;77.03;;
16693;SDS011;39538;52.196;9.892;2022-08-04T14:34:23;85.15;;;81.43;;
16693;SDS011;39538;52.196;9.892;2022-08-04T14:36:50;68.50;;;65.82;;
16693;SDS011;39538;52.196;9.892;2022-08-04T14:39:17;96.97;;;92.88;;
16693;SDS011;39538;52.196;9.892;2022-08-04T14:42:03;163.73;;;155.32;;
16693;SDS011;39538;52.196;9.892;2022-08-04T14:44:30;315.05;;;297.88;;
16693;SDS011;39538;52.196;9.892;2022-08-04T14:46:57;286.83;;;272.95;;
16693;SDS011;39538;52.196;9.892;2022-08-04T14:49:24;463.65;;;437.33;;
16693;SDS011;39538;52.196;9.892;2022-08-04T14:51:52;535.35;;;501.88;;
16693;SDS011;39538;52.196;9.892;2022-08-04T14:54:24;552.83;;;519.88;;
16693;SDS011;39538;52.196;9.892;2022-08-04T14:56:54;555.97;;;524.17;;
16693;SDS011;39538;52.196;9.892;2022-08-04T14:59:23;496.42;;;470.38;;
16693;SDS011;39538;52.196;9.892;2022-08-04T15:01:50;492.25;;;467.20;;
16693;SDS011;39538;52.196;9.892;2022-08-04T15:04:17;502.38;;;475.58;;
16693;SDS011;39538;52.196;9.892;2022-08-04T15:06:45;479.33;;;455.42;;
16693;SDS011;39538;52.196;9.892;2022-08-04T15:09:12;503.35;;;477.23;;
16693;SDS011;39538;52.196;9.892;2022-08-04T15:11:39;495.83;;;468.92;;
16693;SDS011;39538;52.196;9.892;2022-08-04T15:14:07;518.35;;;489.92;;
16693;SDS011;39538;52.196;9.892;2022-08-04T15:16:34;509.40;;;481.17;;
16693;SDS011;39538;52.196;9.892;2022-08-04T15:19:00;501.00;;;473.15;;
16693;SDS011;39538;52.196;9.892;2022-08-04T15:21:27;544.75;;;514.30;;